Lagos - Oshodi, Nigeria

1:01 PM WAT on February 13, 2016 (GMT +0100)
Murtala Muhammed | | Change Station
CLOSE
Current Station
Airport
Location: Lagos,
Elevation: 125 ft
Nearby Weather Stations

Elev 125 ft 6.58 °N, 3.32 °E | Updated 1 hour ago

Haze
Haze
90 °F
Feels Like 100 °F
N
5
Wind Variable Wind from NW

Today
High -- | Low -- °F
--% Chance of Precip.
Yesterday
High -- | Low -- °F
Precip. -- in
Pressure 29.95 in
Visibility -9999.0 miles
Clouds Few 1300 ft
Heat Index 100 °F
Dew Point 75 °F
Humidity 62%
Rainfall 0.00 in
Snow Depth Not available.
7:03 AM 6:58 PM
Waxing Crescent, 30% visible
METAR DNMM 131100Z 32004KT 3200 HZ FEW013 32/24 Q1014 NOSIG
Pressure 29.95 in
Visibility -9999.0 miles
Clouds Few 1300 ft
Heat Index 100 °F
Dew Point 75 °F
Humidity 62%
Rainfall 0.00 in
Snow Depth Not available.
7:03 AM 6:58 PM
Waxing Crescent, 30% visible
METAR DNMM 131100Z 32004KT 3200 HZ FEW013 32/24 Q1014 NOSIG

10-Day Weather Forecast

No radar image for this location.
×

Almanac

Astronomy

Feb. 13, 2016 Rise Set
Actual Time
Civil Twilight
Nautical Twilight
Astronomical Twilight
Moon
Length of Visible Light
Length of Day
Tomorrow will be .
, % of the Moon is Illuminated

Today's Extremes

Country Highs Country Lows

Community

WunderPhotos

Upload Photos

1,892,541 photos uploaded!

WunderBlog® & News

Nearby

Air Quality

  Air Quality AQ Index Pollutant
Not available.

Snow Depth

Station Depth Elevation

Earthquake Activity

City Distance Mag. Time & Date
Minimum magnitude displayed is 2.5.

Coastal Water Temperatures

Place Temperature

Stations

Nearby Weather Stations

Station Location Temp. Windchill Dew Point Humidity Wind Precip. Elev Updated Type